sensor_id;sensor_type;location;lat;lon;timestamp;pressure;altitude;pressure_sealevel;temperature;humidity
48404;BME280;34202;52.536;6.042;2023-04-30T00:02:12;102506.02;;;9.09;92.16
48404;BME280;34202;52.536;6.042;2023-04-30T00:07:13;102513.60;;;9.08;92.39
48404;BME280;34202;52.536;6.042;2023-04-30T00:12:13;102504.84;;;9.06;92.44
48404;BME280;34202;52.536;6.042;2023-04-30T00:17:14;102505.46;;;9.04;92.54
48404;BME280;34202;52.536;6.042;2023-04-30T00:22:15;102515.19;;;8.99;92.52
48404;BME280;34202;52.536;6.042;2023-04-30T00:27:15;102515.91;;;8.96;92.65
48404;BME280;34202;52.536;6.042;2023-04-30T00:32:16;102510.63;;;8.94;93.01
48404;BME280;34202;52.536;6.042;2023-04-30T00:37:16;102508.08;;;8.96;93.07
48404;BME280;34202;52.536;6.042;2023-04-30T00:42:16;102508.65;;;8.97;93.10
48404;BME280;34202;52.536;6.042;2023-04-30T00:47:17;102510.06;;;8.97;93.13
48404;BME280;34202;52.536;6.042;2023-04-30T00:52:17;102513.73;;;8.98;93.20
48404;BME280;34202;52.536;6.042;2023-04-30T00:57:19;102517.42;;;8.99;93.11
48404;BME280;34202;52.536;6.042;2023-04-30T01:02:21;102510.45;;;8.98;92.73
48404;BME280;34202;52.536;6.042;2023-04-30T01:07:25;102511.54;;;8.95;92.48
48404;BME280;34202;52.536;6.042;2023-04-30T01:12:37;102514.86;;;8.91;92.34
48404;BME280;34202;52.536;6.042;2023-04-30T01:17:57;102519.38;;;8.87;92.11
48404;BME280;34202;52.536;6.042;2023-04-30T01:23:10;102525.41;;;8.81;92.07
48404;BME280;34202;52.536;6.042;2023-04-30T01:33:13;102522.77;;;8.68;91.98
48404;BME280;34202;52.536;6.042;2023-04-30T01:44:11;102517.86;;;8.50;92.07
48404;BME280;34202;52.536;6.042;2023-04-30T01:54:29;102520.48;;;8.35;92.16
48404;BME280;34202;52.536;6.042;2023-04-30T01:59:38;102518.10;;;8.32;92.36
48404;BME280;34202;52.536;6.042;2023-04-30T02:04:38;102519.10;;;8.31;92.31
48404;BME280;34202;52.536;6.042;2023-04-30T02:09:39;102521.33;;;8.30;92.37
48404;BME280;34202;52.536;6.042;2023-04-30T02:14:39;102528.14;;;8.24;92.53
48404;BME280;34202;52.536;6.042;2023-04-30T02:19:40;102527.66;;;8.13;92.68
48404;BME280;34202;52.536;6.042;2023-04-30T02:24:40;102530.39;;;8.00;92.73
48404;BME280;34202;52.536;6.042;2023-04-30T02:29:40;102537.02;;;7.88;93.08
48404;BME280;34202;52.536;6.042;2023-04-30T02:34:41;102535.95;;;7.81;93.25
48404;BME280;34202;52.536;6.042;2023-04-30T02:39:41;102532.22;;;7.74;93.38
48404;BME280;34202;52.536;6.042;2023-04-30T02:44:41;102531.11;;;7.69;93.43
48404;BME280;34202;52.536;6.042;2023-04-30T02:49:42;102531.73;;;7.64;93.56
48404;BME280;34202;52.536;6.042;2023-04-30T02:54:43;102531.70;;;7.59;93.75
48404;BME280;34202;52.536;6.042;2023-04-30T02:59:43;102527.23;;;7.56;93.58
48404;BME280;34202;52.536;6.042;2023-04-30T03:04:45;102525.14;;;7.52;93.57
48404;BME280;34202;52.536;6.042;2023-04-30T03:09:45;102520.52;;;7.49;93.46
48404;BME280;34202;52.536;6.042;2023-04-30T03:14:45;102511.31;;;7.45;93.54
48404;BME280;34202;52.536;6.042;2023-04-30T03:19:46;102510.17;;;7.39;93.43
48404;BME280;34202;52.536;6.042;2023-04-30T03:24:46;102509.93;;;7.30;93.32
48404;BME280;34202;52.536;6.042;2023-04-30T03:29:46;102519.58;;;7.22;93.18
48404;BME280;34202;52.536;6.042;2023-04-30T03:34:49;102517.08;;;7.17;93.29
48404;BME280;34202;52.536;6.042;2023-04-30T03:45:01;102516.11;;;7.07;93.53
48404;BME280;34202;52.536;6.042;2023-04-30T03:50:02;102513.67;;;7.00;93.39
48404;BME280;34202;52.536;6.042;2023-04-30T03:55:03;102516.14;;;6.97;93.63
48404;BME280;34202;52.536;6.042;2023-04-30T04:00:05;102520.09;;;6.93;93.70
48404;BME280;34202;52.536;6.042;2023-04-30T04:05:07;102522.55;;;6.90;93.72
48404;BME280;34202;52.536;6.042;2023-04-30T04:10:07;102522.66;;;6.85;93.94
48404;BME280;34202;52.536;6.042;2023-04-30T04:15:08;102522.11;;;6.81;94.18
48404;BME280;34202;52.536;6.042;2023-04-30T04:20:09;102520.98;;;6.75;94.28
48404;BME280;34202;52.536;6.042;2023-04-30T04:25:10;102522.98;;;6.70;94.52
48404;BME280;34202;52.536;6.042;2023-04-30T04:30:10;102527.33;;;6.64;94.98
48404;BME280;34202;52.536;6.042;2023-04-30T04:35:13;102534.95;;;6.57;95.47
48404;BME280;34202;52.536;6.042;2023-04-30T04:40:29;102531.68;;;6.54;95.75
48404;BME280;34202;52.536;6.042;2023-04-30T04:45:29;102530.36;;;6.48;95.96
48404;BME280;34202;52.536;6.042;2023-04-30T04:50:30;102531.63;;;6.46;96.15
48404;BME280;34202;52.536;6.042;2023-04-30T04:55:31;102536.77;;;6.45;96.51
48404;BME280;34202;52.536;6.042;2023-04-30T05:00:31;102544.20;;;6.45;96.74
48404;BME280;34202;52.536;6.042;2023-04-30T05:05:33;102551.10;;;6.44;96.75
48404;BME280;34202;52.536;6.042;2023-04-30T05:10:33;102553.20;;;6.45;97.06
48404;BME280;34202;52.536;6.042;2023-04-30T05:15:33;102560.34;;;6.46;97.20
48404;BME280;34202;52.536;6.042;2023-04-30T05:20:34;102562.79;;;6.47;97.21
48404;BME280;34202;52.536;6.042;2023-04-30T05:25:35;102571.04;;;6.49;97.44
48404;BME280;34202;52.536;6.042;2023-04-30T05:30:35;102573.02;;;6.50;97.71
48404;BME280;34202;52.536;6.042;2023-04-30T05:35:36;102574.14;;;6.52;97.99
48404;BME280;34202;52.536;6.042;2023-04-30T05:40:36;102572.67;;;6.54;98.00
48404;BME280;34202;52.536;6.042;2023-04-30T05:45:36;102577.14;;;6.57;98.41
48404;BME280;34202;52.536;6.042;2023-04-30T05:50:37;102580.62;;;6.61;98.59
48404;BME280;34202;52.536;6.042;2023-04-30T05:55:37;102584.39;;;6.63;98.57
48404;BME280;34202;52.536;6.042;2023-04-30T06:00:38;102592.91;;;6.67;99.03
48404;BME280;34202;52.536;6.042;2023-04-30T06:05:38;102593.97;;;6.75;99.33
48404;BME280;34202;52.536;6.042;2023-04-30T06:10:41;102590.54;;;6.82;99.54
48404;BME280;34202;52.536;6.042;2023-04-30T06:15:41;102591.42;;;6.93;99.97
48404;BME280;34202;52.536;6.042;2023-04-30T06:20:41;102588.05;;;7.02;100.00
48404;BME280;34202;52.536;6.042;2023-04-30T06:25:42;102587.96;;;7.14;100.00
48404;BME280;34202;52.536;6.042;2023-04-30T06:30:42;102589.63;;;7.28;100.00
48404;BME280;34202;52.536;6.042;2023-04-30T06:35:43;102589.40;;;7.44;100.00
48404;BME280;34202;52.536;6.042;2023-04-30T06:40:43;102589.65;;;7.65;100.00
48404;BME280;34202;52.536;6.042;2023-04-30T06:45:44;102597.55;;;7.86;100.00
48404;BME280;34202;52.536;6.042;2023-04-30T06:50:44;102604.11;;;8.08;99.72
48404;BME280;34202;52.536;6.042;2023-04-30T06:55:45;102604.89;;;8.29;99.20
48404;BME280;34202;52.536;6.042;2023-04-30T07:00:48;102599.98;;;8.52;99.22
48404;BME280;34202;52.536;6.042;2023-04-30T07:05:48;102602.42;;;8.76;98.53
48404;BME280;34202;52.536;6.042;2023-04-30T07:10:50;102600.46;;;8.96;97.32
48404;BME280;34202;52.536;6.042;2023-04-30T07:15:51;102596.52;;;9.14;96.73
48404;BME280;34202;52.536;6.042;2023-04-30T07:20:51;102590.48;;;9.37;96.53
48404;BME280;34202;52.536;6.042;2023-04-30T07:25:52;102588.52;;;9.62;96.06
48404;BME280;34202;52.536;6.042;2023-04-30T07:30:52;102597.15;;;9.88;95.31
48404;BME280;34202;52.536;6.042;2023-04-30T07:35:52;102597.29;;;10.06;93.65
48404;BME280;34202;52.536;6.042;2023-04-30T07:40:55;102595.34;;;10.24;93.15
48404;BME280;34202;52.536;6.042;2023-04-30T07:45:55;102589.75;;;10.42;92.50
48404;BME280;34202;52.536;6.042;2023-04-30T07:50:55;102592.42;;;10.64;92.01
48404;BME280;34202;52.536;6.042;2023-04-30T07:55:56;102591.63;;;10.92;92.05
48404;BME280;34202;52.536;6.042;2023-04-30T08:00:57;102595.12;;;11.19;91.61
48404;BME280;34202;52.536;6.042;2023-04-30T08:05:57;102600.04;;;11.48;91.08
48404;BME280;34202;52.536;6.042;2023-04-30T08:10:57;102598.14;;;11.71;89.45
48404;BME280;34202;52.536;6.042;2023-04-30T08:15:58;102602.92;;;11.97;88.43
48404;BME280;34202;52.536;6.042;2023-04-30T08:20:59;102601.30;;;12.13;86.47
48404;BME280;34202;52.536;6.042;2023-04-30T08:26:00;102599.10;;;12.34;86.23
48404;BME280;34202;52.536;6.042;2023-04-30T08:31:01;102595.04;;;12.59;85.25
48404;BME280;34202;52.536;6.042;2023-04-30T08:36:01;102600.48;;;12.79;83.26
48404;BME280;34202;52.536;6.042;2023-04-30T08:41:12;102598.33;;;12.99;82.49
48404;BME280;34202;52.536;6.042;2023-04-30T08:46:14;102594.48;;;13.12;80.92
48404;BME280;34202;52.536;6.042;2023-04-30T08:51:16;102595.27;;;13.24;79.13
48404;BME280;34202;52.536;6.042;2023-04-30T08:56:16;102595.56;;;13.28;78.52
48404;BME280;34202;52.536;6.042;2023-04-30T09:01:17;102594.25;;;13.46;78.84
48404;BME280;34202;52.536;6.042;2023-04-30T09:06:17;102598.81;;;13.71;78.58
48404;BME280;34202;52.536;6.042;2023-04-30T09:11:29;102596.74;;;13.89;78.08
48404;BME280;34202;52.536;6.042;2023-04-30T09:16:47;102595.76;;;14.17;78.03
48404;BME280;34202;52.536;6.042;2023-04-30T09:21:48;102595.34;;;14.50;78.00
48404;BME280;34202;52.536;6.042;2023-04-30T09:26:49;102595.82;;;14.75;76.76
48404;BME280;34202;52.536;6.042;2023-04-30T09:31:49;102588.86;;;14.89;74.79
48404;BME280;34202;52.536;6.042;2023-04-30T09:36:54;102585.79;;;15.05;74.11
48404;BME280;34202;52.536;6.042;2023-04-30T09:42:10;102577.28;;;15.21;74.00
48404;BME280;34202;52.536;6.042;2023-04-30T09:47:15;102574.55;;;15.39;72.13
48404;BME280;34202;52.536;6.042;2023-04-30T09:52:16;102568.80;;;15.42;71.53
48404;BME280;34202;52.536;6.042;2023-04-30T09:57:20;102557.30;;;15.61;72.14
48404;BME280;34202;52.536;6.042;2023-04-30T10:02:22;102550.83;;;15.88;72.36
48404;BME280;34202;52.536;6.042;2023-04-30T10:07:24;102548.70;;;16.16;71.31
48404;BME280;34202;52.536;6.042;2023-04-30T10:12:38;102545.16;;;16.32;70.22
48404;BME280;34202;52.536;6.042;2023-04-30T10:17:44;102539.20;;;16.51;69.19
48404;BME280;34202;52.536;6.042;2023-04-30T10:22:47;102532.73;;;16.75;69.65
48404;BME280;34202;52.536;6.042;2023-04-30T10:27:48;102523.07;;;16.95;68.03
48404;BME280;34202;52.536;6.042;2023-04-30T10:32:57;102525.66;;;16.91;65.70
48404;BME280;34202;52.536;6.042;2023-04-30T10:38:21;102523.58;;;16.75;65.88
48404;BME280;34202;52.536;6.042;2023-04-30T10:43:26;102518.96;;;16.90;66.71
48404;BME280;34202;52.536;6.042;2023-04-30T10:48:27;102514.42;;;16.92;64.81
48404;BME280;34202;52.536;6.042;2023-04-30T10:53:30;102506.08;;;16.84;63.96
48404;BME280;34202;52.536;6.042;2023-04-30T10:58:32;102501.58;;;16.71;64.52
48404;BME280;34202;52.536;6.042;2023-04-30T11:03:34;102496.27;;;16.89;66.30
48404;BME280;34202;52.536;6.042;2023-04-30T11:08:37;102491.08;;;16.98;64.72
48404;BME280;34202;52.536;6.042;2023-04-30T11:13:46;102489.38;;;17.10;65.02
48404;BME280;34202;52.536;6.042;2023-04-30T11:18:47;102488.77;;;17.26;65.23
48404;BME280;34202;52.536;6.042;2023-04-30T11:23:50;102480.85;;;17.26;63.85
48404;BME280;34202;52.536;6.042;2023-04-30T11:28:52;102473.58;;;17.14;63.80
48404;BME280;34202;52.536;6.042;2023-04-30T11:33:54;102467.31;;;17.28;64.80
48404;BME280;34202;52.536;6.042;2023-04-30T11:38:56;102460.08;;;17.24;62.76
48404;BME280;34202;52.536;6.042;2023-04-30T11:43:56;102462.29;;;17.10;62.17
48404;BME280;34202;52.536;6.042;2023-04-30T11:48:57;102461.08;;;17.12;63.69
48404;BME280;34202;52.536;6.042;2023-04-30T11:53:57;102445.66;;;17.28;63.63
48404;BME280;34202;52.536;6.042;2023-04-30T11:58:58;102438.83;;;17.34;63.37
48404;BME280;34202;52.536;6.042;2023-04-30T12:03:59;102432.71;;;17.45;63.38
48404;BME280;34202;52.536;6.042;2023-04-30T12:09:01;102428.01;;;17.61;64.13
48404;BME280;34202;52.536;6.042;2023-04-30T12:14:06;102430.86;;;17.72;62.81
48404;BME280;34202;52.536;6.042;2023-04-30T12:19:06;102426.47;;;17.81;62.50
48404;BME280;34202;52.536;6.042;2023-04-30T12:24:10;102422.95;;;17.79;61.94
48404;BME280;34202;52.536;6.042;2023-04-30T12:29:15;102423.98;;;17.76;61.96
48404;BME280;34202;52.536;6.042;2023-04-30T12:34:16;102413.65;;;17.85;62.00
48404;BME280;34202;52.536;6.042;2023-04-30T12:39:18;102409.57;;;17.83;61.32
48404;BME280;34202;52.536;6.042;2023-04-30T12:44:23;102406.23;;;17.83;61.13
48404;BME280;34202;52.536;6.042;2023-04-30T12:49:25;102406.08;;;17.89;61.81
48404;BME280;34202;52.536;6.042;2023-04-30T12:54:30;102405.40;;;18.11;62.56
48404;BME280;34202;52.536;6.042;2023-04-30T13:04:54;102393.41;;;18.32;59.17
48404;BME280;34202;52.536;6.042;2023-04-30T13:09:54;102390.25;;;18.16;58.93
48404;BME280;34202;52.536;6.042;2023-04-30T13:14:54;102384.27;;;18.05;59.37
48404;BME280;34202;52.536;6.042;2023-04-30T13:19:56;102372.45;;;18.08;59.43
48404;BME280;34202;52.536;6.042;2023-04-30T13:24:56;102368.23;;;18.01;59.10
48404;BME280;34202;52.536;6.042;2023-04-30T13:29:58;102359.95;;;17.97;59.06
48404;BME280;34202;52.536;6.042;2023-04-30T13:34:59;102348.49;;;17.98;59.68
48404;BME280;34202;52.536;6.042;2023-04-30T13:39:59;102346.89;;;18.13;59.61
48404;BME280;34202;52.536;6.042;2023-04-30T13:45:00;102341.27;;;17.99;57.49
48404;BME280;34202;52.536;6.042;2023-04-30T13:50:01;102338.06;;;17.73;57.87
48404;BME280;34202;52.536;6.042;2023-04-30T13:55:02;102337.52;;;17.70;57.62
48404;BME280;34202;52.536;6.042;2023-04-30T14:00:05;102331.02;;;17.70;57.83
48404;BME280;34202;52.536;6.042;2023-04-30T14:05:06;102324.86;;;17.74;58.89
48404;BME280;34202;52.536;6.042;2023-04-30T14:10:07;102322.95;;;17.85;59.10
48404;BME280;34202;52.536;6.042;2023-04-30T14:15:08;102314.50;;;17.89;58.66
48404;BME280;34202;52.536;6.042;2023-04-30T14:20:09;102310.80;;;17.93;59.05
48404;BME280;34202;52.536;6.042;2023-04-30T14:25:10;102309.92;;;18.02;58.56
48404;BME280;34202;52.536;6.042;2023-04-30T14:30:12;102300.58;;;18.08;58.93
48404;BME280;34202;52.536;6.042;2023-04-30T14:35:12;102297.56;;;18.17;59.02
48404;BME280;34202;52.536;6.042;2023-04-30T14:40:13;102297.05;;;18.19;58.04
48404;BME280;34202;52.536;6.042;2023-04-30T14:45:14;102288.95;;;18.06;57.75
48404;BME280;34202;52.536;6.042;2023-04-30T14:50:14;102286.84;;;18.04;58.26
48404;BME280;34202;52.536;6.042;2023-04-30T14:55:15;102284.02;;;18.02;57.84
48404;BME280;34202;52.536;6.042;2023-04-30T15:00:15;102280.15;;;18.02;57.81
48404;BME280;34202;52.536;6.042;2023-04-30T15:05:16;102275.02;;;18.10;58.03
48404;BME280;34202;52.536;6.042;2023-04-30T15:10:17;102265.85;;;18.18;58.08
48404;BME280;34202;52.536;6.042;2023-04-30T15:15:17;102263.38;;;18.24;57.99
48404;BME280;34202;52.536;6.042;2023-04-30T15:20:18;102259.13;;;18.30;58.00
48404;BME280;34202;52.536;6.042;2023-04-30T15:25:18;102253.84;;;18.31;57.42
48404;BME280;34202;52.536;6.042;2023-04-30T15:30:20;102254.73;;;18.18;56.62
48404;BME280;34202;52.536;6.042;2023-04-30T15:35:20;102250.20;;;18.03;57.03
48404;BME280;34202;52.536;6.042;2023-04-30T15:40:21;102248.98;;;18.00;57.39
48404;BME280;34202;52.536;6.042;2023-04-30T15:45:21;102246.70;;;17.96;57.19
48404;BME280;34202;52.536;6.042;2023-04-30T15:50:24;102243.17;;;17.87;57.24
48404;BME280;34202;52.536;6.042;2023-04-30T15:55:25;102241.21;;;17.82;57.67
48404;BME280;34202;52.536;6.042;2023-04-30T16:00:26;102233.12;;;17.81;57.88
48404;BME280;34202;52.536;6.042;2023-04-30T16:05:27;102228.89;;;17.80;57.80
48404;BME280;34202;52.536;6.042;2023-04-30T16:10:28;102225.57;;;17.71;57.72
48404;BME280;34202;52.536;6.042;2023-04-30T16:15:29;102220.29;;;17.61;57.50
48404;BME280;34202;52.536;6.042;2023-04-30T16:20:30;102219.77;;;17.50;57.30
48404;BME280;34202;52.536;6.042;2023-04-30T16:25:31;102216.77;;;17.34;56.80
48404;BME280;34202;52.536;6.042;2023-04-30T16:30:32;102216.23;;;17.25;56.76
48404;BME280;34202;52.536;6.042;2023-04-30T16:35:33;102210.79;;;17.23;57.10
48404;BME280;34202;52.536;6.042;2023-04-30T16:40:33;102201.98;;;17.23;57.16
48404;BME280;34202;52.536;6.042;2023-04-30T16:45:34;102194.23;;;17.18;57.15
48404;BME280;34202;52.536;6.042;2023-04-30T16:50:34;102194.94;;;17.12;57.74
48404;BME280;34202;52.536;6.042;2023-04-30T16:55:35;102185.60;;;17.08;57.97
48404;BME280;34202;52.536;6.042;2023-04-30T17:00:35;102182.08;;;17.02;58.30
48404;BME280;34202;52.536;6.042;2023-04-30T17:05:36;102173.64;;;16.97;58.06
48404;BME280;34202;52.536;6.042;2023-04-30T17:10:37;102172.56;;;16.87;57.84
48404;BME280;34202;52.536;6.042;2023-04-30T17:15:39;102173.21;;;16.78;58.15
48404;BME280;34202;52.536;6.042;2023-04-30T17:20:40;102168.98;;;16.69;58.29
48404;BME280;34202;52.536;6.042;2023-04-30T17:25:41;102165.45;;;16.64;58.29
48404;BME280;34202;52.536;6.042;2023-04-30T17:30:42;102167.19;;;16.58;58.10
48404;BME280;34202;52.536;6.042;2023-04-30T17:35:43;102162.08;;;16.51;58.42
48404;BME280;34202;52.536;6.042;2023-04-30T17:40:44;102160.29;;;16.45;58.68
48404;BME280;34202;52.536;6.042;2023-04-30T17:45:44;102160.61;;;16.35;59.13
48404;BME280;34202;52.536;6.042;2023-04-30T17:50:45;102152.84;;;16.25;59.56
48404;BME280;34202;52.536;6.042;2023-04-30T17:55:46;102155.24;;;16.14;59.96
48404;BME280;34202;52.536;6.042;2023-04-30T18:00:46;102149.05;;;16.05;60.08
48404;BME280;34202;52.536;6.042;2023-04-30T18:05:47;102147.62;;;15.98;60.42
48404;BME280;34202;52.536;6.042;2023-04-30T18:10:51;102143.38;;;15.93;60.54
48404;BME280;34202;52.536;6.042;2023-04-30T18:15:52;102137.02;;;15.86;60.59
48404;BME280;34202;52.536;6.042;2023-04-30T18:20:52;102136.64;;;15.79;60.69
48404;BME280;34202;52.536;6.042;2023-04-30T18:25:52;102139.36;;;15.70;60.92
48404;BME280;34202;52.536;6.042;2023-04-30T18:30:53;102137.73;;;15.61;61.03
48404;BME280;34202;52.536;6.042;2023-04-30T18:35:55;102138.36;;;15.52;61.05
48404;BME280;34202;52.536;6.042;2023-04-30T18:40:56;102140.04;;;15.41;61.13
48404;BME280;34202;52.536;6.042;2023-04-30T18:45:56;102138.55;;;15.30;61.32
48404;BME280;34202;52.536;6.042;2023-04-30T18:50:57;102136.73;;;15.21;61.39
48404;BME280;34202;52.536;6.042;2023-04-30T18:55:58;102131.39;;;15.11;61.59
48404;BME280;34202;52.536;6.042;2023-04-30T19:00:58;102130.75;;;14.99;61.76
48404;BME280;34202;52.536;6.042;2023-04-30T19:05:58;102130.81;;;14.87;62.14
48404;BME280;34202;52.536;6.042;2023-04-30T19:10:59;102130.88;;;14.75;62.37
48404;BME280;34202;52.536;6.042;2023-04-30T19:16:00;102130.58;;;14.63;62.63
48404;BME280;34202;52.536;6.042;2023-04-30T19:21:01;102129.36;;;14.51;62.89
48404;BME280;34202;52.536;6.042;2023-04-30T19:26:02;102126.61;;;14.39;63.30
48404;BME280;34202;52.536;6.042;2023-04-30T19:31:03;102129.64;;;14.29;63.73
48404;BME280;34202;52.536;6.042;2023-04-30T19:36:05;102131.27;;;14.20;64.06
48404;BME280;34202;52.536;6.042;2023-04-30T19:41:05;102134.65;;;14.09;64.29
48404;BME280;34202;52.536;6.042;2023-04-30T19:46:06;102136.79;;;13.99;64.49
48404;BME280;34202;52.536;6.042;2023-04-30T19:51:06;102137.52;;;13.89;64.79
48404;BME280;34202;52.536;6.042;2023-04-30T19:56:08;102133.19;;;13.79;65.01
48404;BME280;34202;52.536;6.042;2023-04-30T20:01:09;102132.18;;;13.69;65.29
48404;BME280;34202;52.536;6.042;2023-04-30T20:06:09;102130.49;;;13.61;65.49
48404;BME280;34202;52.536;6.042;2023-04-30T20:11:10;102126.34;;;13.52;65.90
48404;BME280;34202;52.536;6.042;2023-04-30T20:16:10;102126.88;;;13.42;66.04
48404;BME280;34202;52.536;6.042;2023-04-30T20:21:11;102119.56;;;13.33;66.34
48404;BME280;34202;52.536;6.042;2023-04-30T20:26:11;102119.59;;;13.25;66.55
48404;BME280;34202;52.536;6.042;2023-04-30T20:31:12;102120.67;;;13.17;66.70
48404;BME280;34202;52.536;6.042;2023-04-30T20:36:14;102117.73;;;13.08;66.79
48404;BME280;34202;52.536;6.042;2023-04-30T20:41:15;102117.77;;;12.99;67.02
48404;BME280;34202;52.536;6.042;2023-04-30T20:46:16;102117.64;;;12.92;67.07
48404;BME280;34202;52.536;6.042;2023-04-30T20:51:16;102116.29;;;12.85;67.18
48404;BME280;34202;52.536;6.042;2023-04-30T20:56:17;102113.20;;;12.79;67.38
48404;BME280;34202;52.536;6.042;2023-04-30T21:01:17;102105.73;;;12.71;67.42
48404;BME280;34202;52.536;6.042;2023-04-30T21:06:18;102102.13;;;12.65;67.52
48404;BME280;34202;52.536;6.042;2023-04-30T21:11:18;102091.53;;;12.58;67.65
48404;BME280;34202;52.536;6.042;2023-04-30T21:16:19;102090.55;;;12.53;67.73
48404;BME280;34202;52.536;6.042;2023-04-30T21:21:19;102087.13;;;12.47;67.81
48404;BME280;34202;52.536;6.042;2023-04-30T21:26:20;102088.24;;;12.42;67.89
48404;BME280;34202;52.536;6.042;2023-04-30T21:31:20;102080.99;;;12.35;67.99
48404;BME280;34202;52.536;6.042;2023-04-30T21:36:22;102081.91;;;12.30;68.08
48404;BME280;34202;52.536;6.042;2023-04-30T21:41:23;102079.17;;;12.23;68.24
48404;BME280;34202;52.536;6.042;2023-04-30T21:46:24;102072.08;;;12.17;68.38
48404;BME280;34202;52.536;6.042;2023-04-30T21:51:24;102068.98;;;12.10;68.45
48404;BME280;34202;52.536;6.042;2023-04-30T21:56:25;102065.17;;;12.04;68.67
48404;BME280;34202;52.536;6.042;2023-04-30T22:01:26;102063.30;;;11.97;68.85
48404;BME280;34202;52.536;6.042;2023-04-30T22:06:29;102057.94;;;11.91;69.06
48404;BME280;34202;52.536;6.042;2023-04-30T22:11:30;102050.77;;;11.84;69.04
48404;BME280;34202;52.536;6.042;2023-04-30T22:16:30;102049.59;;;11.77;69.27
48404;BME280;34202;52.536;6.042;2023-04-30T22:21:32;102043.18;;;11.71;69.44
48404;BME280;34202;52.536;6.042;2023-04-30T22:26:32;102036.61;;;11.66;69.65
48404;BME280;34202;52.536;6.042;2023-04-30T22:31:33;102035.44;;;11.60;69.76
48404;BME280;34202;52.536;6.042;2023-04-30T22:36:33;102038.27;;;11.54;69.96
48404;BME280;34202;52.536;6.042;2023-04-30T22:41:33;102039.92;;;11.49;70.07
48404;BME280;34202;52.536;6.042;2023-04-30T22:46:34;102040.63;;;11.43;70.22
48404;BME280;34202;52.536;6.042;2023-04-30T22:51:36;102034.59;;;11.37;70.31
48404;BME280;34202;52.536;6.042;2023-04-30T22:56:36;102030.98;;;11.31;70.47
48404;BME280;34202;52.536;6.042;2023-04-30T23:01:40;102025.29;;;11.27;70.62
48404;BME280;34202;52.536;6.042;2023-04-30T23:06:40;102022.20;;;11.21;70.73
48404;BME280;34202;52.536;6.042;2023-04-30T23:11:41;102022.27;;;11.16;70.97
48404;BME280;34202;52.536;6.042;2023-04-30T23:16:42;102014.30;;;11.11;71.08
48404;BME280;34202;52.536;6.042;2023-04-30T23:21:42;102012.41;;;11.05;71.21
48404;BME280;34202;52.536;6.042;2023-04-30T23:26:43;102012.30;;;10.99;71.40
48404;BME280;34202;52.536;6.042;2023-04-30T23:31:43;102012.89;;;10.95;71.61
48404;BME280;34202;52.536;6.042;2023-04-30T23:36:44;102009.29;;;10.90;71.74
48404;BME280;34202;52.536;6.042;2023-04-30T23:41:44;102003.06;;;10.84;71.90
48404;BME280;34202;52.536;6.042;2023-04-30T23:46:44;102004.49;;;10.79;72.13
48404;BME280;34202;52.536;6.042;2023-04-30T23:51:45;101999.98;;;10.73;72.26
48404;BME280;34202;52.536;6.042;2023-04-30T23:56:46;101996.40;;;10.68;72.35
